createdAt,value
2017-07-17T00:00:22.544Z,56.09
2017-07-17T00:01:31.525Z,55.99
2017-07-17T00:02:40.808Z,56.37
2017-07-17T00:03:49.470Z,56.37
2017-07-17T00:04:58.744Z,56.37
2017-07-17T00:06:07.724Z,56.47
2017-07-17T00:07:17.015Z,56.09
2017-07-17T00:08:25.987Z,55.99
2017-07-17T00:09:35.119Z,56.09
2017-07-17T00:10:44.398Z,56.18
2017-07-17T00:11:53.362Z,56.09
2017-07-17T00:13:02.331Z,56.37
2017-07-17T00:14:11.609Z,56.37
2017-07-17T00:15:21.349Z,55.99
2017-07-17T00:16:30.649Z,56.28
2017-07-17T00:17:39.933Z,56.18
2017-07-17T00:18:48.917Z,56.18
2017-07-17T00:19:58.209Z,56.18
2017-07-17T00:21:08.185Z,56.28
2017-07-17T00:22:17.164Z,56.18
2017-07-17T00:23:26.778Z,56.18
2017-07-17T00:24:35.454Z,55.99
2017-07-17T00:25:44.763Z,56.18
2017-07-17T00:26:54.098Z,55.99
2017-07-17T00:28:03.387Z,56.18
2017-07-17T00:29:12.988Z,56.18
2017-07-17T00:30:21.650Z,56.37
2017-07-17T00:31:31.246Z,56.47
2017-07-17T00:32:40.225Z,56.95
2017-07-17T00:33:48.884Z,56.86
2017-07-17T00:34:58.172Z,56.86
2017-07-17T00:36:07.462Z,56.57
2017-07-17T00:37:16.174Z,56.47
2017-07-17T00:38:25.320Z,56.47
2017-07-17T00:39:34.939Z,56.73
2017-07-17T00:40:44.542Z,56.67
2017-07-17T00:41:54.144Z,56.67
2017-07-17T00:43:02.798Z,56.76
2017-07-17T00:44:12.086Z,56.76
2017-07-17T00:45:20.749Z,56.67
2017-07-17T00:46:29.734Z,56.86
2017-07-17T00:47:39.323Z,56.76
2017-07-17T00:48:48.607Z,56.76
2017-07-17T00:49:57.308Z,56.67
2017-07-17T00:51:05.959Z,56.76
2017-07-17T00:52:14.942Z,56.67
2017-07-17T00:53:24.234Z,56.76
2017-07-17T00:54:33.212Z,56.76
2017-07-17T00:55:42.018Z,56.67
2017-07-17T00:56:51.007Z,56.67
2017-07-17T00:58:00.002Z,56.67
2017-07-17T00:59:08.677Z,56.76
2017-07-17T01:00:17.321Z,56.63
2017-07-17T01:01:26.497Z,56.76
2017-07-17T01:02:35.469Z,56.67
2017-07-17T01:03:45.131Z,56.76
2017-07-17T01:04:54.416Z,56.76
2017-07-17T01:06:03.391Z,56.73
2017-07-17T01:07:12.398Z,56.73
2017-07-17T01:08:21.363Z,56.73
2017-07-17T01:09:30.340Z,56.67
2017-07-17T01:10:39.300Z,56.67
2017-07-17T01:11:48.579Z,56.76
2017-07-17T01:12:57.867Z,56.67
2017-07-17T01:14:07.473Z,56.54
2017-07-17T01:15:16.449Z,56.57
2017-07-17T01:16:25.103Z,56.37
2017-07-17T01:17:34.135Z,56.67
2017-07-17T01:18:43.562Z,56.63
2017-07-17T01:19:52.553Z,56.45
2017-07-17T01:21:01.519Z,56.54
2017-07-17T01:22:10.481Z,56.54
2017-07-17T01:23:19.779Z,56.63
2017-07-17T01:24:28.535Z,56.63
2017-07-17T01:25:37.184Z,56.63
2017-07-17T01:26:46.488Z,56.54
2017-07-17T01:27:55.197Z,56.57
2017-07-17T01:29:04.483Z,56.54
2017-07-17T01:30:13.434Z,56.54
2017-07-17T01:31:22.785Z,56.54
2017-07-17T01:32:31.740Z,56.83
2017-07-17T01:33:40.709Z,56.83
2017-07-17T01:34:49.369Z,56.63
2017-07-17T01:35:58.500Z,56.54
2017-07-17T01:37:07.147Z,56.73
2017-07-17T01:38:15.796Z,56.83
2017-07-17T01:39:24.763Z,56.93
2017-07-17T01:40:33.411Z,56.83
2017-07-17T01:41:42.427Z,56.93
2017-07-17T01:42:51.697Z,56.63
2017-07-17T01:44:01.289Z,56.73
2017-07-17T01:45:10.251Z,56.83
2017-07-17T01:46:19.220Z,56.54
2017-07-17T01:47:28.504Z,56.73
2017-07-17T01:48:37.162Z,56.54
2017-07-17T01:49:46.466Z,56.54
2017-07-17T01:50:55.751Z,56.83
2017-07-17T01:52:04.723Z,56.63
2017-07-17T01:53:13.841Z,56.35
2017-07-17T01:54:22.504Z,56.54
2017-07-17T01:55:31.467Z,56.54
2017-07-17T01:56:40.433Z,56.45
2017-07-17T01:57:49.710Z,56.73
2017-07-17T01:58:59.619Z,56.63
2017-07-17T02:00:08.277Z,56.54
2017-07-17T02:01:17.239Z,56.63
2017-07-17T02:02:26.215Z,56.63
2017-07-17T02:03:35.178Z,57.03
2017-07-17T02:04:43.987Z,56.73
2017-07-17T02:05:52.635Z,56.63
2017-07-17T02:07:01.617Z,57.03
2017-07-17T02:08:10.593Z,57.03
2017-07-17T02:09:19.570Z,56.73
2017-07-17T02:10:28.416Z,56.73
2017-07-17T02:11:37.376Z,56.93
2017-07-17T02:12:46.678Z,56.35
2017-07-17T02:13:55.356Z,56.93
2017-07-17T02:15:04.650Z,57.03
2017-07-17T02:16:13.645Z,57.03
2017-07-17T02:17:22.291Z,56.35
2017-07-17T02:18:31.257Z,56.73
2017-07-17T02:19:40.857Z,57.03
2017-07-17T02:20:50.152Z,56.35
2017-07-17T02:21:58.822Z,56.83
2017-07-17T02:23:07.811Z,56.73
2017-07-17T02:24:16.788Z,56.83
2017-07-17T02:25:25.438Z,57.03
2017-07-17T02:26:34.715Z,57.12
2017-07-17T02:27:44.108Z,57.03
2017-07-17T02:28:53.083Z,57.03
2017-07-17T02:30:02.051Z,57.21
2017-07-17T02:31:11.032Z,56.73
2017-07-17T02:32:19.694Z,57.03
2017-07-17T02:33:28.680Z,57.21
2017-07-17T02:34:37.637Z,57.03
2017-07-17T02:35:46.600Z,57.21
2017-07-17T02:36:56.204Z,57.21
2017-07-17T02:38:04.858Z,57.31
2017-07-17T02:39:14.173Z,57.21
2017-07-17T02:40:23.769Z,57.21
2017-07-17T02:41:33.054Z,57.31
2017-07-17T02:42:41.711Z,57.21
2017-07-17T02:43:50.674Z,57.03
2017-07-17T02:45:00.051Z,57.21
2017-07-17T02:46:08.720Z,57.03
2017-07-17T02:47:17.354Z,57.21
2017-07-17T02:48:26.318Z,57.21
2017-07-17T02:49:34.977Z,57.21
2017-07-17T02:50:44.783Z,57.03
2017-07-17T02:51:53.444Z,57.03
2017-07-17T02:53:02.411Z,56.73
2017-07-17T02:54:12.019Z,56.83
2017-07-17T02:55:21.317Z,56.93
2017-07-17T02:56:30.721Z,56.93
2017-07-17T02:57:39.384Z,56.93
2017-07-17T02:58:48.350Z,57.03
2017-07-17T02:59:57.322Z,57.03
2017-07-17T03:01:06.617Z,57.03
2017-07-17T03:02:15.639Z,57.03
2017-07-17T03:03:24.599Z,56.83
2017-07-17T03:04:34.191Z,56.83
2017-07-17T03:05:43.467Z,56.93
2017-07-17T03:06:52.112Z,56.93
2017-07-17T03:08:01.183Z,57.12
2017-07-17T03:09:10.797Z,57.03
2017-07-17T03:10:19.764Z,56.93
2017-07-17T03:11:28.498Z,56.93
2017-07-17T03:12:38.426Z,56.73
2017-07-17T03:13:47.508Z,57.03
2017-07-17T03:14:56.162Z,57.03
2017-07-17T03:16:05.453Z,57.21
2017-07-17T03:17:15.047Z,57.21
2017-07-17T03:18:24.672Z,57.31
2017-07-17T03:19:33.632Z,57.31
2017-07-17T03:20:42.597Z,57.31
2017-07-17T03:21:51.890Z,57.21
2017-07-17T03:23:00.931Z,57.21
2017-07-17T03:26:42.621Z,57.21
2017-07-17T03:27:52.229Z,57.31
2017-07-17T03:29:01.830Z,57.21
2017-07-17T03:30:11.124Z,57.03
2017-07-17T03:31:20.403Z,57.21
2017-07-17T03:32:29.528Z,57.21
2017-07-17T03:33:38.188Z,57.41
2017-07-17T03:34:46.853Z,57.12
2017-07-17T03:35:55.846Z,57.03
2017-07-17T03:37:04.496Z,57.12
2017-07-17T03:38:13.834Z,57.31
2017-07-17T03:41:55.176Z,57.31
2017-07-17T03:43:04.468Z,57.21
2017-07-17T03:44:13.441Z,57.12
2017-07-17T03:45:22.737Z,57.03
2017-07-17T03:49:04.838Z,57.12
2017-07-17T03:50:13.816Z,57.21
2017-07-17T03:51:23.102Z,57.12
2017-07-17T03:52:31.763Z,57.21
2017-07-17T03:53:40.735Z,57.21
2017-07-17T03:54:50.128Z,57.21
2017-07-17T03:55:59.405Z,57.31
2017-07-17T03:57:08.375Z,57.21
2017-07-17T03:58:17.364Z,57.31
2017-07-17T04:01:59.061Z,57.21
2017-07-17T04:03:08.338Z,57.31
2017-07-17T04:06:50.296Z,57.31
2017-07-17T04:10:33.139Z,57.21
2017-07-17T04:14:15.083Z,57.03
2017-07-17T04:15:24.365Z,57.03
2017-07-17T04:16:33.331Z,57.12
2017-07-17T04:17:41.990Z,57.12
2017-07-17T04:18:51.031Z,57.12
2017-07-17T04:20:00.333Z,57.21
2017-07-17T04:23:41.982Z,57.21
2017-07-17T04:24:50.637Z,57.12
2017-07-17T04:26:00.087Z,57.12
2017-07-17T04:27:09.063Z,57.12
2017-07-17T04:28:17.770Z,57.03
2017-07-17T04:29:27.049Z,57.12
2017-07-17T04:30:36.016Z,57.12
2017-07-17T04:31:44.815Z,57.12
2017-07-17T04:32:53.479Z,57.12
2017-07-17T04:34:02.147Z,57.12
2017-07-17T04:35:10.800Z,57.21
2017-07-17T04:36:20.084Z,57.12
2017-07-17T04:37:29.096Z,57.03
2017-07-17T04:38:38.375Z,57.21
2017-07-17T04:39:47.032Z,57.03
2017-07-17T04:40:56.944Z,56.93
2017-07-17T04:42:05.913Z,57.12
2017-07-17T04:43:15.362Z,57.03
2017-07-17T04:44:24.334Z,57.21
2017-07-17T04:45:33.309Z,57.21
2017-07-17T04:46:41.965Z,57.21
2017-07-17T04:47:51.243Z,56.93
2017-07-17T04:49:00.307Z,56.93
2017-07-17T04:50:09.272Z,57.12
2017-07-17T04:51:18.255Z,57.03
2017-07-17T04:52:27.857Z,57.12
2017-07-17T04:53:36.845Z,57.12
2017-07-17T04:54:45.845Z,57.03
2017-07-17T04:55:54.449Z,57.12
2017-07-17T04:57:04.041Z,57.03
2017-07-17T04:58:13.339Z,57.03
2017-07-17T04:59:22.310Z,57.03
2017-07-17T05:00:31.685Z,57.12
2017-07-17T05:01:40.980Z,57.03
2017-07-17T05:02:50.265Z,57.03
2017-07-17T05:03:59.550Z,56.93
2017-07-17T05:05:09.149Z,57.31
2017-07-17T05:06:18.545Z,56.83
2017-07-17T05:07:27.507Z,56.93
2017-07-17T05:08:36.473Z,56.83
2017-07-17T05:09:45.446Z,57.31
2017-07-17T05:10:54.416Z,56.83
2017-07-17T05:12:03.552Z,56.83
2017-07-17T05:13:13.474Z,57.31
2017-07-17T05:14:22.451Z,57.21
2017-07-17T05:15:31.732Z,57.21
2017-07-17T05:16:41.004Z,57.31
2017-07-17T05:17:50.280Z,57.21
2017-07-17T05:18:59.554Z,57.21
2017-07-17T05:20:08.254Z,57.21
2017-07-17T05:21:17.196Z,57.41
2017-07-17T05:22:26.479Z,57.31
2017-07-17T05:23:35.453Z,57.03
2017-07-17T05:24:44.101Z,57.41
2017-07-17T05:25:53.699Z,57.03
2017-07-17T05:27:02.352Z,57.31
2017-07-17T05:28:11.693Z,57.41
2017-07-17T05:29:21.303Z,57.12
2017-07-17T05:30:30.585Z,57.31
2017-07-17T05:31:39.872Z,57.41
2017-07-17T05:32:49.160Z,57.31
2017-07-17T05:33:58.120Z,57.31
2017-07-17T05:35:08.029Z,57.31
2017-07-17T05:36:17.003Z,57.21
2017-07-17T05:37:25.653Z,57.31
2017-07-17T05:38:35.243Z,57.31
2017-07-17T05:39:44.208Z,57.12
2017-07-17T05:40:53.024Z,57.41
2017-07-17T05:42:01.761Z,57.31
2017-07-17T05:43:11.363Z,57.21
2017-07-17T05:44:20.014Z,56.93
2017-07-17T05:45:28.678Z,56.37
2017-07-17T05:46:37.812Z,56.37
2017-07-17T05:47:46.780Z,56.76
2017-07-17T05:48:56.410Z,56.67
2017-07-17T05:50:05.070Z,56.57
2017-07-17T05:51:14.037Z,56.47
2017-07-17T05:52:22.844Z,56.47
2017-07-17T05:53:32.142Z,56.67
2017-07-17T05:54:41.429Z,56.86
2017-07-17T05:55:50.706Z,56.57
2017-07-17T05:56:59.679Z,56.18
2017-07-17T05:58:08.798Z,56.37
2017-07-17T05:59:18.082Z,56.09
2017-07-17T06:00:26.760Z,56.18
2017-07-17T06:01:35.727Z,56.28
2017-07-17T06:02:44.700Z,56.37
2017-07-17T06:03:54.463Z,56.3
2017-07-17T06:05:03.115Z,56.21
2017-07-17T06:06:11.776Z,56.47
2017-07-17T06:07:21.356Z,56.18
2017-07-17T06:08:30.338Z,56.57
2017-07-17T06:09:39.707Z,55.82
2017-07-17T06:10:48.980Z,56.18
2017-07-17T06:11:57.950Z,56.3
2017-07-17T06:13:07.234Z,56.5
2017-07-17T06:14:16.226Z,56.11
2017-07-17T06:15:25.571Z,56.02
2017-07-17T06:16:34.546Z,55.92
2017-07-17T06:17:43.508Z,55.73
2017-07-17T06:18:52.483Z,55.92
2017-07-17T06:20:01.764Z,55.82
2017-07-17T06:21:11.344Z,56.02
2017-07-17T06:22:20.003Z,55.73
2017-07-17T06:23:29.285Z,55.82
2017-07-17T06:24:37.966Z,55.92
2017-07-17T06:25:47.258Z,55.92
2017-07-17T06:26:56.580Z,56.02
2017-07-17T06:28:05.549Z,55.82
2017-07-17T06:29:14.232Z,55.92
2017-07-17T06:30:23.823Z,55.82
2017-07-17T06:31:32.792Z,55.92
2017-07-17T06:32:41.590Z,56.02
2017-07-17T06:33:50.257Z,55.53
2017-07-17T06:34:58.913Z,55.92
2017-07-17T06:36:07.574Z,55.43
2017-07-17T06:37:16.537Z,55.43
2017-07-17T06:38:25.695Z,55.24
2017-07-17T06:39:34.979Z,55.24
2017-07-17T06:40:44.276Z,55.27
2017-07-17T06:41:53.704Z,55.24
2017-07-17T06:43:02.740Z,55.46
2017-07-17T06:44:12.240Z,55.76
2017-07-17T06:45:21.518Z,55.56
2017-07-17T06:46:30.486Z,55.56
2017-07-17T06:47:40.100Z,55.56
2017-07-17T06:48:49.390Z,55.56
2017-07-17T06:49:58.411Z,55.66
2017-07-17T06:51:07.372Z,55.56
2017-07-17T06:52:16.332Z,55.36
2017-07-17T06:53:25.302Z,55.76
2017-07-17T06:54:33.956Z,55.76
2017-07-17T06:55:43.077Z,55.76
2017-07-17T06:56:52.430Z,55.56
2017-07-17T06:58:01.709Z,55.36
2017-07-17T06:59:10.365Z,55.66
2017-07-17T07:00:19.333Z,55.46
2017-07-17T07:01:28.100Z,55.76
2017-07-17T07:02:37.072Z,55.76
2017-07-17T07:03:46.374Z,55.66
2017-07-17T07:04:55.028Z,55.56
2017-07-17T07:06:04.010Z,55.56
2017-07-17T07:07:13.317Z,55.56
2017-07-17T07:08:21.974Z,55.36
2017-07-17T07:09:31.581Z,55.66
2017-07-17T07:10:40.870Z,55.46
2017-07-17T07:11:50.469Z,55.76
2017-07-17T07:12:59.145Z,55.76
2017-07-17T07:14:08.113Z,55.76
2017-07-17T07:15:17.086Z,55.56
2017-07-17T07:16:26.054Z,55.66
2017-07-17T07:17:35.337Z,55.56
2017-07-17T07:18:44.607Z,55.56
2017-07-17T07:19:53.263Z,55.56
2017-07-17T07:21:01.931Z,55.56
2017-07-17T07:22:10.887Z,55.76
2017-07-17T07:23:19.845Z,55.56
2017-07-17T07:24:29.005Z,55.36
2017-07-17T07:25:37.653Z,55.66
2017-07-17T07:26:47.318Z,55.46
2017-07-17T07:27:56.620Z,55.66
2017-07-17T07:29:05.897Z,55.36
2017-07-17T07:30:15.232Z,55.36
2017-07-17T07:31:24.513Z,55.56
2017-07-17T07:32:33.159Z,55.56
2017-07-17T07:33:41.809Z,55.36
2017-07-17T07:34:50.777Z,55.46
2017-07-17T07:35:59.863Z,55.17
2017-07-17T07:37:09.790Z,55.36
2017-07-17T07:38:18.753Z,55.17
2017-07-17T07:39:27.416Z,55.17
2017-07-17T07:40:36.682Z,54.98
2017-07-17T07:41:46.005Z,55.17
2017-07-17T07:42:54.978Z,55.07
2017-07-17T07:44:03.946Z,55.27
2017-07-17T07:45:12.905Z,55.3
2017-07-17T07:46:21.563Z,55.27
2017-07-17T07:47:30.696Z,55.36
2017-07-17T07:48:39.671Z,55.17
2017-07-17T07:49:48.636Z,55.07
2017-07-17T07:50:57.284Z,55.17
2017-07-17T07:52:06.558Z,55.17
2017-07-17T07:53:15.365Z,55.17
2017-07-17T07:54:24.644Z,55.17
2017-07-17T07:55:33.930Z,55.1
2017-07-17T07:56:42.591Z,55.07
2017-07-17T07:57:51.253Z,55.27
2017-07-17T07:59:00.325Z,55.17
2017-07-17T08:00:09.297Z,55.36
2017-07-17T08:01:18.585Z,55.17
2017-07-17T08:02:27.563Z,55.27
2017-07-17T08:03:36.215Z,55
2017-07-17T08:04:45.606Z,55
2017-07-17T08:05:55.211Z,55.07
2017-07-17T08:07:04.175Z,55.2
2017-07-17T08:08:13.153Z,54.88
2017-07-17T08:09:21.843Z,55.2
2017-07-17T08:10:31.248Z,55.1
2017-07-17T08:11:40.535Z,54.91
2017-07-17T08:12:49.504Z,55
2017-07-17T08:13:58.476Z,55
2017-07-17T08:15:07.451Z,54.91
2017-07-17T08:16:16.462Z,54.71
2017-07-17T08:17:25.450Z,54.91
2017-07-17T08:18:34.117Z,55.1
2017-07-17T08:19:43.433Z,54.81
2017-07-17T08:20:52.088Z,54.91
2017-07-17T08:22:01.464Z,55.1
2017-07-17T08:23:10.421Z,54.91
2017-07-17T08:24:19.406Z,54.81
2017-07-17T08:25:28.389Z,54.81
2017-07-17T08:26:37.689Z,54.91
2017-07-17T08:27:46.505Z,54.81
2017-07-17T08:28:55.482Z,54.91
2017-07-17T08:30:04.462Z,54.71
2017-07-17T08:31:13.118Z,55.2
2017-07-17T08:32:22.099Z,55
2017-07-17T08:33:31.883Z,55.2
2017-07-17T08:34:41.234Z,55.3
2017-07-17T08:35:50.520Z,55.2
2017-07-17T08:36:59.832Z,55.1
2017-07-17T08:38:08.808Z,55.2
2017-07-17T08:39:18.571Z,55.2
2017-07-17T08:40:27.864Z,55.3
2017-07-17T08:41:36.837Z,55.4
2017-07-17T08:42:45.494Z,55
2017-07-17T08:43:54.483Z,54.98
2017-07-17T08:45:03.641Z,55.17
2017-07-17T08:46:12.604Z,55.2
2017-07-17T08:47:22.210Z,55.3
2017-07-17T08:48:31.198Z,55.2
2017-07-17T08:49:40.817Z,55.36
2017-07-17T08:50:50.104Z,55.46
2017-07-17T08:51:59.398Z,55.27
2017-07-17T08:53:08.685Z,55.36
2017-07-17T08:54:17.660Z,55.4
2017-07-17T08:55:26.316Z,55.4
2017-07-17T08:56:35.376Z,55.17
2017-07-17T08:57:44.331Z,55.07
2017-07-17T08:58:52.993Z,55.07
2017-07-17T09:00:02.277Z,55.3
2017-07-17T09:01:11.567Z,55.4
2017-07-17T09:02:21.217Z,55.17
2017-07-17T09:03:30.499Z,55.3
2017-07-17T09:04:39.783Z,55.27
2017-07-17T09:05:48.433Z,55
2017-07-17T09:06:57.759Z,55.17
2017-07-17T09:08:06.731Z,55.3
2017-07-17T09:09:15.707Z,55.1
2017-07-17T09:10:24.368Z,55.1
2017-07-17T09:11:33.659Z,55.2
2017-07-17T09:12:42.936Z,55.2
2017-07-17T09:13:51.998Z,55.2
2017-07-17T09:15:00.666Z,54.91
2017-07-17T09:16:09.314Z,54.71
2017-07-17T09:17:18.307Z,54.91
2017-07-17T09:18:27.588Z,55
2017-07-17T09:19:36.556Z,54.81
2017-07-17T09:20:45.544Z,54.81
2017-07-17T09:21:54.230Z,55.1
2017-07-17T09:23:03.203Z,55
2017-07-17T09:24:12.180Z,54.91
2017-07-17T09:25:21.217Z,54.91
2017-07-17T09:26:30.861Z,55.1
2017-07-17T09:27:40.151Z,54.91
2017-07-17T09:28:49.121Z,54.91
2017-07-17T09:29:58.436Z,55.1
2017-07-17T09:31:07.873Z,55.2
2017-07-17T09:32:16.867Z,55
2017-07-17T09:33:25.851Z,54.91
2017-07-17T09:34:34.896Z,54.91
2017-07-17T09:35:43.563Z,54.71
2017-07-17T09:36:52.590Z,54.52
2017-07-17T09:38:01.872Z,54.62
2017-07-17T09:39:11.477Z,54.62
2017-07-17T09:40:20.452Z,54.52
2017-07-17T09:41:29.434Z,54.62
2017-07-17T09:42:39.015Z,54.71
2017-07-17T09:43:47.997Z,54.52
2017-07-17T09:44:57.275Z,54.52
2017-07-17T09:46:07.208Z,54.62
2017-07-17T09:47:16.510Z,54.91
2017-07-17T09:48:25.229Z,54.81
2017-07-17T09:49:34.205Z,54.71
2017-07-17T09:50:43.190Z,54.91
2017-07-17T09:51:51.846Z,54.62
2017-07-17T09:53:00.823Z,54.91
2017-07-17T09:54:09.490Z,54.81
2017-07-17T09:55:19.715Z,54.91
2017-07-17T09:56:28.385Z,54.91
2017-07-17T09:57:37.375Z,54.62
2017-07-17T09:58:46.979Z,54.71
2017-07-17T09:59:56.172Z,54.62
2017-07-17T10:01:05.791Z,54.52
2017-07-17T10:02:15.078Z,54.52
2017-07-17T10:03:24.046Z,54.43
2017-07-17T10:04:33.325Z,54.81
2017-07-17T10:05:42.392Z,54.62
2017-07-17T10:06:51.684Z,54.52
2017-07-17T10:08:00.652Z,54.71
2017-07-17T10:09:09.624Z,54.33
2017-07-17T10:10:18.597Z,54.13
2017-07-17T10:11:28.025Z,54.81
2017-07-17T10:12:37.308Z,54.62
2017-07-17T10:13:45.966Z,54.71
2017-07-17T10:14:55.259Z,54.43
2017-07-17T10:16:04.556Z,54.43
2017-07-17T10:17:13.682Z,54.71
2017-07-17T10:18:22.716Z,54.71
2017-07-17T10:19:32.014Z,54.62
2017-07-17T10:20:41.322Z,54.23
2017-07-17T10:21:51.007Z,54.03
2017-07-17T10:23:00.803Z,54.03
2017-07-17T10:24:09.779Z,54.62
2017-07-17T10:25:18.748Z,54.62
2017-07-17T10:26:27.735Z,54.33
2017-07-17T10:27:36.722Z,54.62
2017-07-17T10:28:45.440Z,54.23
2017-07-17T10:29:54.410Z,54.62
2017-07-17T10:31:03.384Z,54.33
2017-07-17T10:32:12.364Z,54.52
2017-07-17T10:33:21.078Z,54.52
2017-07-17T10:34:30.669Z,54.62
2017-07-17T10:35:39.315Z,53.97
2017-07-17T10:36:48.291Z,54.55
2017-07-17T10:37:57.264Z,54.52
2017-07-17T10:39:06.243Z,54.45
2017-07-17T10:40:15.362Z,54.64
2017-07-17T10:41:24.331Z,54.43
2017-07-17T10:42:32.995Z,54.62
2017-07-17T10:43:41.642Z,54.55
2017-07-17T10:44:51.233Z,54.13
2017-07-17T10:45:59.899Z,54.35
2017-07-17T10:47:08.856Z,54.43
2017-07-17T10:48:18.139Z,54.55
2017-07-17T10:49:27.097Z,54.52
2017-07-17T10:50:35.756Z,54.33
2017-07-17T10:51:44.823Z,54.55
2017-07-17T10:52:53.801Z,54.64
2017-07-17T10:54:03.067Z,54.35
2017-07-17T10:55:12.030Z,54.26
2017-07-17T10:56:20.663Z,54.26
2017-07-17T10:57:30.093Z,54.06
2017-07-17T10:58:39.375Z,54.26
2017-07-17T10:59:48.033Z,54.06
2017-07-17T11:00:57.318Z,54.45
2017-07-17T11:02:06.277Z,53.77
2017-07-17T11:03:15.543Z,53.67
2017-07-17T11:04:24.826Z,53.67
2017-07-17T11:05:34.106Z,53.67
2017-07-17T11:06:42.750Z,53.77
2017-07-17T11:07:51.424Z,53.58
2017-07-17T11:09:00.436Z,53.97
2017-07-17T11:10:09.114Z,53.87
2017-07-17T11:11:18.395Z,53.39
2017-07-17T11:12:27.683Z,53.77
2017-07-17T11:13:36.674Z,53.49
2017-07-17T11:14:45.642Z,53.39
2017-07-17T11:15:54.296Z,53.58
2017-07-17T11:17:03.278Z,53.49
2017-07-17T11:18:12.243Z,53.58
2017-07-17T11:19:21.533Z,53.89
2017-07-17T11:20:30.897Z,53.12
2017-07-17T11:21:40.495Z,53.31
2017-07-17T11:22:49.775Z,53.31
2017-07-17T11:23:58.761Z,53.31
2017-07-17T11:25:08.375Z,53.22
2017-07-17T11:26:17.232Z,53.29
2017-07-17T11:27:26.503Z,54.06
2017-07-17T11:28:35.795Z,53.41
2017-07-17T11:29:45.123Z,53.31
2017-07-17T11:30:54.117Z,53.22
2017-07-17T11:32:03.690Z,53.51
2017-07-17T11:33:12.682Z,53.61
2017-07-17T11:34:21.346Z,53.51
2017-07-17T11:35:30.645Z,53.41
2017-07-17T11:36:39.928Z,53.7
2017-07-17T11:37:49.265Z,53.41
2017-07-17T11:38:57.917Z,53.41
2017-07-17T11:40:06.892Z,53.41
2017-07-17T11:41:15.544Z,53.22
2017-07-17T11:42:24.506Z,53.31
2017-07-17T11:43:33.956Z,53.8
2017-07-17T11:44:43.239Z,53.31
2017-07-17T11:45:52.200Z,53.31
2017-07-17T11:56:52.546Z,54.06
2017-07-17T11:59:10.647Z,53.22
2017-07-17T12:00:20.259Z,53.29
2017-07-17T12:01:29.224Z,54.06
2017-07-17T12:02:38.827Z,54.09
2017-07-17T12:03:48.745Z,53.61
2017-07-17T12:06:06.544Z,53.41
2017-07-17T12:07:15.851Z,53.31
2017-07-17T12:08:25.151Z,53.99
2017-07-17T12:09:33.804Z,53.29
2017-07-17T12:10:43.571Z,53.87
2017-07-17T12:11:52.530Z,53.89
2017-07-17T12:13:01.502Z,54.09
2017-07-17T12:14:10.805Z,53.41
2017-07-17T12:15:20.114Z,53.29
2017-07-17T12:16:28.776Z,53.22
2017-07-17T12:17:37.747Z,53.41
2017-07-17T12:18:46.393Z,53.61
2017-07-17T12:19:55.986Z,53.51
2017-07-17T12:21:05.280Z,53.51
2017-07-17T12:22:15.347Z,53.12
2017-07-17T12:23:25.257Z,53.12
2017-07-17T12:24:34.220Z,53.22
2017-07-17T12:25:42.898Z,53.22
2017-07-17T12:26:52.489Z,53.41
2017-07-17T12:28:01.294Z,53.22
2017-07-17T12:29:10.594Z,53.02
2017-07-17T12:30:19.561Z,53.51
2017-07-17T12:31:28.841Z,53.22
2017-07-17T12:32:37.818Z,53.31
2017-07-17T12:33:47.159Z,53.51
2017-07-17T12:34:56.458Z,53.31
2017-07-17T12:36:05.776Z,53.41
2017-07-17T12:37:15.384Z,53.31
2017-07-17T12:38:24.347Z,53.61
2017-07-17T12:39:33.739Z,53.22
2017-07-17T12:40:42.706Z,53.22
2017-07-17T12:41:52.020Z,53.22
2017-07-17T12:43:01.005Z,53.41
2017-07-17T12:44:10.288Z,53.41
2017-07-17T12:45:19.677Z,53.51
2017-07-17T12:46:28.643Z,53.31
2017-07-17T12:47:37.316Z,53.31
2017-07-17T12:48:46.606Z,53.31
2017-07-17T12:49:55.578Z,52.83
2017-07-17T12:51:05.205Z,53.51
2017-07-17T12:52:14.496Z,53.61
2017-07-17T12:53:23.148Z,53.22
2017-07-17T12:54:32.438Z,53.22
2017-07-17T12:55:42.351Z,53.41
2017-07-17T12:56:51.457Z,53.51
2017-07-17T12:58:00.752Z,53.51
2017-07-17T12:59:09.416Z,53.22
2017-07-17T13:00:19.042Z,53.22
2017-07-17T13:01:28.381Z,53.22
2017-07-17T13:02:37.088Z,53.31
2017-07-17T13:03:45.754Z,53.22
2017-07-17T13:04:55.041Z,53.22
2017-07-17T13:06:03.999Z,53.22
2017-07-17T13:07:12.972Z,53.22
2017-07-17T13:08:22.406Z,53.41
2017-07-17T13:09:31.709Z,53.61
2017-07-17T13:10:40.674Z,53.22
2017-07-17T13:11:49.954Z,53.12
2017-07-17T13:12:58.926Z,53.31
2017-07-17T13:14:08.517Z,53.31
2017-07-17T13:15:17.806Z,53.41
2017-07-17T13:16:26.797Z,53.12
2017-07-17T13:17:36.413Z,53.22
2017-07-17T13:18:45.700Z,53.31
2017-07-17T13:19:55.140Z,53.02
2017-07-17T13:21:04.748Z,53.61
2017-07-17T13:22:13.723Z,53.7
2017-07-17T13:23:23.016Z,53.7
2017-07-17T13:24:31.990Z,53.7
2017-07-17T13:25:41.379Z,53.41
2017-07-17T13:26:50.364Z,53.61
2017-07-17T13:27:59.668Z,53.41
2017-07-17T13:29:08.975Z,53.51
2017-07-17T13:30:18.265Z,53.12
2017-07-17T13:31:27.392Z,53.31
2017-07-17T13:32:36.356Z,53.31
2017-07-17T13:33:45.352Z,53.31
2017-07-17T13:34:54.945Z,53.31
2017-07-17T13:36:04.261Z,53.31
2017-07-17T13:37:13.704Z,53.31
2017-07-17T13:38:22.679Z,53.31
2017-07-17T13:39:31.958Z,53.41
2017-07-17T13:40:40.939Z,53.51
2017-07-17T13:41:50.536Z,53.12
2017-07-17T13:42:59.656Z,53.12
2017-07-17T13:44:08.646Z,53.12
2017-07-17T13:45:17.301Z,53.41
2017-07-17T13:46:25.967Z,53.41
2017-07-17T13:47:34.940Z,53.41
2017-07-17T13:48:44.343Z,53.31
2017-07-17T13:49:53.013Z,53.31
2017-07-17T13:51:02.299Z,53.31
2017-07-17T13:52:10.987Z,53.12
2017-07-17T13:53:19.663Z,53.12
2017-07-17T13:54:30.052Z,53.12
2017-07-17T13:55:39.670Z,53.12
2017-07-17T13:56:49.597Z,53.22
2017-07-17T13:57:59.532Z,53.22
2017-07-17T13:59:09.462Z,53.31
2017-07-17T14:00:19.129Z,53.22
2017-07-17T14:01:28.757Z,53.22
2017-07-17T14:02:38.707Z,53.31
2017-07-17T14:03:48.942Z,53.09
2017-07-17T14:04:58.562Z,53.31
2017-07-17T14:06:08.512Z,53.09
2017-07-17T14:07:18.455Z,53.39
2017-07-17T14:08:28.091Z,53.41
2017-07-17T14:09:38.010Z,53.67
2017-07-17T14:10:47.624Z,53.49
2017-07-17T14:11:57.663Z,53.49
2017-07-17T14:13:07.302Z,53.58
2017-07-17T14:14:16.950Z,53.58
2017-07-17T14:15:26.879Z,53.49
2017-07-17T14:16:36.802Z,53.19
2017-07-17T14:17:47.067Z,53.19
2017-07-17T14:18:56.988Z,53.29
2017-07-17T14:20:06.956Z,53.19
2017-07-17T14:21:16.300Z,54.06
2017-07-17T14:22:25.656Z,53.19
2017-07-17T14:23:35.575Z,53.29
2017-07-17T14:24:45.510Z,53.29
2017-07-17T14:25:55.133Z,53.29
2017-07-17T14:27:04.750Z,53.29
2017-07-17T14:28:14.665Z,53.87
2017-07-17T14:29:24.895Z,53.29
2017-07-17T14:30:34.820Z,53.19
2017-07-17T14:31:44.762Z,53.29
2017-07-17T14:32:54.993Z,53.29
2017-07-17T14:34:04.603Z,53.87
2017-07-17T14:35:14.285Z,53.29
2017-07-17T14:36:24.236Z,53.49
2017-07-17T14:37:34.178Z,53.29
2017-07-17T14:38:44.103Z,53.19
2017-07-17T14:39:54.041Z,53.19
2017-07-17T14:41:03.810Z,53.39
2017-07-17T14:42:14.055Z,53.67
2017-07-17T14:43:23.994Z,53.67
2017-07-17T14:44:33.925Z,53.67
2017-07-17T14:45:44.185Z,53.49
2017-07-17T14:46:54.632Z,53.49
2017-07-17T14:48:04.552Z,53.67
2017-07-17T14:49:14.201Z,53.67
2017-07-17T14:50:24.430Z,53.49
2017-07-17T14:51:34.667Z,53.39
2017-07-17T14:52:44.956Z,53.67
2017-07-17T14:53:54.291Z,53.67
2017-07-17T14:55:04.230Z,53.58
2017-07-17T14:56:14.159Z,53.49
2017-07-17T14:57:24.086Z,53.49
2017-07-17T14:58:33.708Z,53.49
2017-07-17T14:59:43.649Z,53.49
2017-07-17T15:00:53.251Z,53.49
2017-07-17T15:02:03.231Z,53.49
2017-07-17T15:03:13.162Z,53.39
2017-07-17T15:04:22.787Z,53.77
2017-07-17T15:05:33.020Z,53.39
2017-07-17T15:06:42.330Z,53.29
2017-07-17T15:07:52.565Z,53.49
2017-07-17T15:09:01.889Z,53.19
2017-07-17T15:10:11.611Z,53.39
2017-07-17T15:11:21.549Z,53.19
2017-07-17T15:12:31.170Z,53.39
2017-07-17T15:13:41.098Z,53.19
2017-07-17T15:14:51.337Z,53.29
2017-07-17T15:16:01.413Z,53.09
2017-07-17T15:17:11.652Z,53.39
2017-07-17T15:18:21.584Z,53.19
2017-07-17T15:19:31.827Z,53.49
2017-07-17T15:20:42.068Z,53.49
2017-07-17T15:21:51.377Z,53.49
2017-07-17T15:23:01.297Z,53.39
2017-07-17T15:24:11.214Z,53.29
2017-07-17T15:25:21.469Z,53.29
2017-07-17T15:26:31.393Z,53